sensor_id;sensor_type;location;lat;lon;timestamp;P1;durP1;ratioP1;P2;durP2;ratioP2
16063;SDS011;8136;53.172;8.256;2023-11-19T00:02:00;14.07;;;10.77;;
16063;SDS011;8136;53.172;8.256;2023-11-19T00:04:28;15.30;;;10.43;;
16063;SDS011;8136;53.172;8.256;2023-11-19T00:06:55;14.20;;;11.27;;
16063;SDS011;8136;53.172;8.256;2023-11-19T00:09:27;14.00;;;10.93;;
16063;SDS011;8136;53.172;8.256;2023-11-19T00:11:54;14.00;;;11.07;;
16063;SDS011;8136;53.172;8.256;2023-11-19T00:14:28;12.93;;;10.33;;
16063;SDS011;8136;53.172;8.256;2023-11-19T00:16:58;16.00;;;10.87;;
16063;SDS011;8136;53.172;8.256;2023-11-19T00:19:27;17.40;;;11.73;;
16063;SDS011;8136;53.172;8.256;2023-11-19T00:21:58;17.83;;;11.77;;
16063;SDS011;8136;53.172;8.256;2023-11-19T00:24:27;16.63;;;11.50;;
16063;SDS011;8136;53.172;8.256;2023-11-19T00:26:55;16.60;;;11.47;;
16063;SDS011;8136;53.172;8.256;2023-11-19T00:29:22;16.00;;;11.77;;
16063;SDS011;8136;53.172;8.256;2023-11-19T00:31:50;16.87;;;11.63;;
16063;SDS011;8136;53.172;8.256;2023-11-19T00:34:16;15.73;;;12.17;;
16063;SDS011;8136;53.172;8.256;2023-11-19T00:36:47;14.10;;;10.83;;
16063;SDS011;8136;53.172;8.256;2023-11-19T00:39:14;13.97;;;10.93;;
16063;SDS011;8136;53.172;8.256;2023-11-19T00:41:42;15.83;;;11.43;;
16063;SDS011;8136;53.172;8.256;2023-11-19T00:44:11;14.57;;;9.97;;
16063;SDS011;8136;53.172;8.256;2023-11-19T00:46:38;14.47;;;11.60;;
16063;SDS011;8136;53.172;8.256;2023-11-19T00:49:04;14.53;;;11.10;;
16063;SDS011;8136;53.172;8.256;2023-11-19T00:51:31;16.47;;;11.30;;
16063;SDS011;8136;53.172;8.256;2023-11-19T00:54:00;16.47;;;11.30;;
16063;SDS011;8136;53.172;8.256;2023-11-19T00:56:26;15.10;;;11.37;;
16063;SDS011;8136;53.172;8.256;2023-11-19T00:58:53;15.33;;;12.27;;
16063;SDS011;8136;53.172;8.256;2023-11-19T01:01:21;16.80;;;11.80;;
16063;SDS011;8136;53.172;8.256;2023-11-19T01:03:47;15.57;;;11.03;;
16063;SDS011;8136;53.172;8.256;2023-11-19T01:06:14;14.50;;;11.07;;
16063;SDS011;8136;53.172;8.256;2023-11-19T01:08:52;16.63;;;12.50;;
16063;SDS011;8136;53.172;8.256;2023-11-19T01:11:21;14.23;;;10.93;;
16063;SDS011;8136;53.172;8.256;2023-11-19T01:13:51;18.20;;;10.57;;
16063;SDS011;8136;53.172;8.256;2023-11-19T01:16:19;13.30;;;10.53;;
16063;SDS011;8136;53.172;8.256;2023-11-19T01:18:46;14.07;;;10.17;;
16063;SDS011;8136;53.172;8.256;2023-11-19T01:21:13;12.70;;;9.23;;
16063;SDS011;8136;53.172;8.256;2023-11-19T01:23:40;11.77;;;8.77;;
16063;SDS011;8136;53.172;8.256;2023-11-19T01:26:16;11.83;;;8.87;;
16063;SDS011;8136;53.172;8.256;2023-11-19T01:28:44;10.27;;;7.73;;
16063;SDS011;8136;53.172;8.256;2023-11-19T01:31:11;12.53;;;8.80;;
16063;SDS011;8136;53.172;8.256;2023-11-19T01:33:41;12.70;;;9.03;;
16063;SDS011;8136;53.172;8.256;2023-11-19T01:36:08;12.53;;;9.20;;
16063;SDS011;8136;53.172;8.256;2023-11-19T01:38:36;14.67;;;9.50;;
16063;SDS011;8136;53.172;8.256;2023-11-19T01:41:03;15.37;;;9.87;;
16063;SDS011;8136;53.172;8.256;2023-11-19T01:43:33;14.27;;;10.57;;
16063;SDS011;8136;53.172;8.256;2023-11-19T01:46:02;14.60;;;10.23;;
16063;SDS011;8136;53.172;8.256;2023-11-19T01:48:36;13.57;;;10.30;;
16063;SDS011;8136;53.172;8.256;2023-11-19T01:51:07;15.43;;;10.83;;
16063;SDS011;8136;53.172;8.256;2023-11-19T01:53:35;16.40;;;11.10;;
16063;SDS011;8136;53.172;8.256;2023-11-19T01:56:03;14.53;;;10.10;;
16063;SDS011;8136;53.172;8.256;2023-11-19T01:58:34;13.37;;;10.13;;
16063;SDS011;8136;53.172;8.256;2023-11-19T02:01:05;12.27;;;9.50;;
16063;SDS011;8136;53.172;8.256;2023-11-19T02:03:33;12.97;;;10.30;;
16063;SDS011;8136;53.172;8.256;2023-11-19T02:06:00;13.13;;;9.77;;
16063;SDS011;8136;53.172;8.256;2023-11-19T02:08:27;13.97;;;10.33;;
16063;SDS011;8136;53.172;8.256;2023-11-19T02:10:55;12.20;;;9.70;;
16063;SDS011;8136;53.172;8.256;2023-11-19T02:13:22;13.40;;;10.97;;
16063;SDS011;8136;53.172;8.256;2023-11-19T02:15:50;14.07;;;10.00;;
16063;SDS011;8136;53.172;8.256;2023-11-19T02:18:18;14.00;;;9.87;;
16063;SDS011;8136;53.172;8.256;2023-11-19T02:24:09;13.90;;;9.83;;
16063;SDS011;8136;53.172;8.256;2023-11-19T02:26:42;16.33;;;9.83;;
16063;SDS011;8136;53.172;8.256;2023-11-19T02:29:36;16.17;;;10.73;;
16063;SDS011;8136;53.172;8.256;2023-11-19T02:32:03;14.57;;;10.63;;
16063;SDS011;8136;53.172;8.256;2023-11-19T02:34:34;14.73;;;10.63;;
16063;SDS011;8136;53.172;8.256;2023-11-19T02:37:01;15.83;;;10.27;;
16063;SDS011;8136;53.172;8.256;2023-11-19T02:39:28;15.13;;;10.50;;
16063;SDS011;8136;53.172;8.256;2023-11-19T02:41:56;18.37;;;10.63;;
16063;SDS011;8136;53.172;8.256;2023-11-19T02:44:23;14.73;;;9.83;;
16063;SDS011;8136;53.172;8.256;2023-11-19T02:46:51;16.67;;;10.93;;
16063;SDS011;8136;53.172;8.256;2023-11-19T02:49:18;16.40;;;11.00;;
16063;SDS011;8136;53.172;8.256;2023-11-19T02:51:45;14.27;;;11.07;;
16063;SDS011;8136;53.172;8.256;2023-11-19T02:54:15;18.80;;;11.87;;
16063;SDS011;8136;53.172;8.256;2023-11-19T02:56:42;15.37;;;10.47;;
16063;SDS011;8136;53.172;8.256;2023-11-19T02:59:12;18.73;;;12.77;;
16063;SDS011;8136;53.172;8.256;2023-11-19T03:01:53;19.60;;;11.63;;
16063;SDS011;8136;53.172;8.256;2023-11-19T03:04:20;17.27;;;10.63;;
16063;SDS011;8136;53.172;8.256;2023-11-19T03:06:48;19.30;;;11.10;;
16063;SDS011;8136;53.172;8.256;2023-11-19T03:09:15;13.87;;;10.63;;
16063;SDS011;8136;53.172;8.256;2023-11-19T03:11:42;14.00;;;10.33;;
16063;SDS011;8136;53.172;8.256;2023-11-19T03:14:08;19.07;;;11.33;;
16063;SDS011;8136;53.172;8.256;2023-11-19T03:16:36;18.77;;;11.07;;
16063;SDS011;8136;53.172;8.256;2023-11-19T03:19:04;19.63;;;10.63;;
16063;SDS011;8136;53.172;8.256;2023-11-19T03:21:31;15.30;;;9.73;;
16063;SDS011;8136;53.172;8.256;2023-11-19T03:23:58;18.57;;;10.17;;
16063;SDS011;8136;53.172;8.256;2023-11-19T03:26:25;18.23;;;10.33;;
16063;SDS011;8136;53.172;8.256;2023-11-19T03:28:52;14.37;;;9.57;;
16063;SDS011;8136;53.172;8.256;2023-11-19T03:31:19;16.87;;;9.67;;
16063;SDS011;8136;53.172;8.256;2023-11-19T03:33:46;16.73;;;10.90;;
16063;SDS011;8136;53.172;8.256;2023-11-19T03:36:14;22.60;;;10.67;;
16063;SDS011;8136;53.172;8.256;2023-11-19T03:38:41;19.90;;;10.17;;
16063;SDS011;8136;53.172;8.256;2023-11-19T03:41:11;16.70;;;10.37;;
16063;SDS011;8136;53.172;8.256;2023-11-19T03:43:38;16.90;;;10.57;;
16063;SDS011;8136;53.172;8.256;2023-11-19T03:46:04;21.93;;;10.13;;
16063;SDS011;8136;53.172;8.256;2023-11-19T03:48:31;20.87;;;10.23;;
16063;SDS011;8136;53.172;8.256;2023-11-19T03:50:58;18.23;;;9.17;;
16063;SDS011;8136;53.172;8.256;2023-11-19T03:53:26;18.00;;;9.13;;
16063;SDS011;8136;53.172;8.256;2023-11-19T03:55:53;16.27;;;9.13;;
16063;SDS011;8136;53.172;8.256;2023-11-19T03:58:19;17.27;;;8.63;;
16063;SDS011;8136;53.172;8.256;2023-11-19T04:00:46;15.53;;;8.17;;
16063;SDS011;8136;53.172;8.256;2023-11-19T04:03:13;17.73;;;8.47;;
16063;SDS011;8136;53.172;8.256;2023-11-19T04:05:40;15.50;;;8.00;;
16063;SDS011;8136;53.172;8.256;2023-11-19T04:08:07;15.80;;;8.40;;
16063;SDS011;8136;53.172;8.256;2023-11-19T04:10:35;21.60;;;8.57;;
16063;SDS011;8136;53.172;8.256;2023-11-19T04:13:02;18.03;;;8.30;;
16063;SDS011;8136;53.172;8.256;2023-11-19T04:15:29;22.63;;;7.90;;
16063;SDS011;8136;53.172;8.256;2023-11-19T04:17:56;18.63;;;7.87;;
16063;SDS011;8136;53.172;8.256;2023-11-19T04:20:23;16.03;;;7.60;;
16063;SDS011;8136;53.172;8.256;2023-11-19T04:22:50;21.73;;;7.43;;
16063;SDS011;8136;53.172;8.256;2023-11-19T04:25:18;20.77;;;7.53;;
16063;SDS011;8136;53.172;8.256;2023-11-19T04:27:46;18.30;;;7.50;;
16063;SDS011;8136;53.172;8.256;2023-11-19T04:30:13;16.23;;;7.10;;
16063;SDS011;8136;53.172;8.256;2023-11-19T04:32:40;16.60;;;6.37;;
16063;SDS011;8136;53.172;8.256;2023-11-19T04:35:08;16.23;;;6.50;;
16063;SDS011;8136;53.172;8.256;2023-11-19T04:37:35;16.30;;;7.03;;
16063;SDS011;8136;53.172;8.256;2023-11-19T04:40:11;14.17;;;6.00;;
16063;SDS011;8136;53.172;8.256;2023-11-19T04:42:38;17.50;;;6.20;;
16063;SDS011;8136;53.172;8.256;2023-11-19T04:45:08;19.57;;;6.37;;
16063;SDS011;8136;53.172;8.256;2023-11-19T04:47:35;20.93;;;5.60;;
16063;SDS011;8136;53.172;8.256;2023-11-19T04:50:02;14.33;;;5.33;;
16063;SDS011;8136;53.172;8.256;2023-11-19T04:52:29;13.00;;;5.10;;
16063;SDS011;8136;53.172;8.256;2023-11-19T04:54:56;17.03;;;5.97;;
16063;SDS011;8136;53.172;8.256;2023-11-19T04:57:23;19.37;;;5.20;;
16063;SDS011;8136;53.172;8.256;2023-11-19T04:59:49;12.80;;;4.80;;
16063;SDS011;8136;53.172;8.256;2023-11-19T05:02:18;16.60;;;5.57;;
16063;SDS011;8136;53.172;8.256;2023-11-19T05:04:52;14.07;;;5.13;;
16063;SDS011;8136;53.172;8.256;2023-11-19T05:07:19;19.43;;;5.07;;
16063;SDS011;8136;53.172;8.256;2023-11-19T05:09:45;15.40;;;5.10;;
16063;SDS011;8136;53.172;8.256;2023-11-19T05:12:12;17.57;;;5.30;;
16063;SDS011;8136;53.172;8.256;2023-11-19T05:14:39;14.60;;;4.70;;
16063;SDS011;8136;53.172;8.256;2023-11-19T05:17:06;15.03;;;5.30;;
16063;SDS011;8136;53.172;8.256;2023-11-19T05:19:34;14.70;;;4.73;;
16063;SDS011;8136;53.172;8.256;2023-11-19T05:22:01;8.87;;;4.23;;
16063;SDS011;8136;53.172;8.256;2023-11-19T05:24:28;16.10;;;4.53;;
16063;SDS011;8136;53.172;8.256;2023-11-19T05:26:55;14.83;;;4.23;;
16063;SDS011;8136;53.172;8.256;2023-11-19T05:29:23;20.33;;;4.47;;
16063;SDS011;8136;53.172;8.256;2023-11-19T05:31:50;15.30;;;4.63;;
16063;SDS011;8136;53.172;8.256;2023-11-19T05:34:16;20.27;;;5.23;;
16063;SDS011;8136;53.172;8.256;2023-11-19T05:36:45;18.70;;;4.30;;
16063;SDS011;8136;53.172;8.256;2023-11-19T05:39:12;11.63;;;3.73;;
16063;SDS011;8136;53.172;8.256;2023-11-19T05:41:39;15.40;;;4.00;;
16063;SDS011;8136;53.172;8.256;2023-11-19T05:44:06;24.40;;;4.30;;
16063;SDS011;8136;53.172;8.256;2023-11-19T05:46:33;18.80;;;4.10;;
16063;SDS011;8136;53.172;8.256;2023-11-19T05:49:05;21.00;;;4.03;;
16063;SDS011;8136;53.172;8.256;2023-11-19T05:51:35;15.13;;;3.67;;
16063;SDS011;8136;53.172;8.256;2023-11-19T05:54:05;15.03;;;4.43;;
16063;SDS011;8136;53.172;8.256;2023-11-19T05:56:32;12.50;;;3.83;;
16063;SDS011;8136;53.172;8.256;2023-11-19T05:58:59;17.90;;;3.97;;
16063;SDS011;8136;53.172;8.256;2023-11-19T06:01:28;15.03;;;3.73;;
16063;SDS011;8136;53.172;8.256;2023-11-19T06:03:56;17.13;;;3.93;;
16063;SDS011;8136;53.172;8.256;2023-11-19T06:06:23;15.43;;;3.00;;
16063;SDS011;8136;53.172;8.256;2023-11-19T06:08:53;20.40;;;3.70;;
16063;SDS011;8136;53.172;8.256;2023-11-19T06:11:21;23.53;;;4.43;;
16063;SDS011;8136;53.172;8.256;2023-11-19T06:13:48;16.87;;;3.83;;
16063;SDS011;8136;53.172;8.256;2023-11-19T06:16:16;15.43;;;4.37;;
16063;SDS011;8136;53.172;8.256;2023-11-19T06:18:42;16.77;;;4.53;;
16063;SDS011;8136;53.172;8.256;2023-11-19T06:21:10;25.33;;;4.43;;
16063;SDS011;8136;53.172;8.256;2023-11-19T06:23:36;16.03;;;3.97;;
16063;SDS011;8136;53.172;8.256;2023-11-19T06:26:04;28.47;;;4.13;;
16063;SDS011;8136;53.172;8.256;2023-11-19T06:28:32;21.93;;;4.20;;
16063;SDS011;8136;53.172;8.256;2023-11-19T06:30:59;16.07;;;3.83;;
16063;SDS011;8136;53.172;8.256;2023-11-19T06:33:26;24.63;;;4.50;;
16063;SDS011;8136;53.172;8.256;2023-11-19T06:35:53;20.37;;;4.27;;
16063;SDS011;8136;53.172;8.256;2023-11-19T07:30:35;27.67;;;4.60;;
16063;SDS011;8136;53.172;8.256;2023-11-19T09:31:54;20.60;;;4.80;;
16063;SDS011;8136;53.172;8.256;2023-11-19T13:18:36;9.97;;;1.67;;
16063;SDS011;8136;53.172;8.256;2023-11-19T13:21:03;10.73;;;2.13;;
16063;SDS011;8136;53.172;8.256;2023-11-19T13:23:31;7.53;;;2.20;;
16063;SDS011;8136;53.172;8.256;2023-11-19T13:25:57;9.67;;;2.00;;
16063;SDS011;8136;53.172;8.256;2023-11-19T13:28:29;7.07;;;2.10;;
16063;SDS011;8136;53.172;8.256;2023-11-19T13:30:57;9.63;;;2.10;;
16063;SDS011;8136;53.172;8.256;2023-11-19T13:33:27;14.40;;;2.60;;
16063;SDS011;8136;53.172;8.256;2023-11-19T13:35:55;13.50;;;2.43;;
16063;SDS011;8136;53.172;8.256;2023-11-19T13:38:23;14.40;;;2.77;;
16063;SDS011;8136;53.172;8.256;2023-11-19T13:40:50;8.77;;;2.30;;
16063;SDS011;8136;53.172;8.256;2023-11-19T13:43:17;8.73;;;2.33;;
16063;SDS011;8136;53.172;8.256;2023-11-19T13:45:47;15.00;;;2.97;;
16063;SDS011;8136;53.172;8.256;2023-11-19T13:48:14;10.53;;;2.60;;
16063;SDS011;8136;53.172;8.256;2023-11-19T13:50:47;12.83;;;2.90;;
16063;SDS011;8136;53.172;8.256;2023-11-19T13:53:15;13.30;;;2.90;;
16063;SDS011;8136;53.172;8.256;2023-11-19T13:55:48;13.53;;;3.00;;
16063;SDS011;8136;53.172;8.256;2023-11-19T13:58:18;12.23;;;2.73;;
16063;SDS011;8136;53.172;8.256;2023-11-19T14:00:47;9.23;;;2.63;;
16063;SDS011;8136;53.172;8.256;2023-11-19T14:03:15;20.60;;;3.60;;
16063;SDS011;8136;53.172;8.256;2023-11-19T14:05:42;16.83;;;3.10;;
16063;SDS011;8136;53.172;8.256;2023-11-19T14:08:16;12.80;;;3.13;;
16063;SDS011;8136;53.172;8.256;2023-11-19T14:10:43;16.90;;;3.20;;
16063;SDS011;8136;53.172;8.256;2023-11-19T14:13:14;12.87;;;3.17;;
16063;SDS011;8136;53.172;8.256;2023-11-19T14:15:41;16.63;;;3.63;;
16063;SDS011;8136;53.172;8.256;2023-11-19T14:18:11;18.07;;;3.97;;
16063;SDS011;8136;53.172;8.256;2023-11-19T14:20:43;16.37;;;3.47;;
16063;SDS011;8136;53.172;8.256;2023-11-19T14:23:12;12.03;;;2.87;;
16063;SDS011;8136;53.172;8.256;2023-11-19T14:25:44;8.90;;;2.87;;
16063;SDS011;8136;53.172;8.256;2023-11-19T14:28:16;10.77;;;3.13;;
16063;SDS011;8136;53.172;8.256;2023-11-19T14:30:48;17.43;;;3.60;;
16063;SDS011;8136;53.172;8.256;2023-11-19T14:33:21;12.57;;;2.83;;
16063;SDS011;8136;53.172;8.256;2023-11-19T14:35:48;17.17;;;3.27;;
16063;SDS011;8136;53.172;8.256;2023-11-19T14:38:15;9.63;;;2.40;;
16063;SDS011;8136;53.172;8.256;2023-11-19T14:40:42;10.57;;;2.63;;
16063;SDS011;8136;53.172;8.256;2023-11-19T14:43:16;10.40;;;2.73;;
16063;SDS011;8136;53.172;8.256;2023-11-19T14:45:43;12.20;;;3.03;;
16063;SDS011;8136;53.172;8.256;2023-11-19T14:48:10;12.07;;;2.80;;
16063;SDS011;8136;53.172;8.256;2023-11-19T14:50:37;7.40;;;2.30;;
16063;SDS011;8136;53.172;8.256;2023-11-19T14:53:04;5.97;;;2.20;;
16063;SDS011;8136;53.172;8.256;2023-11-19T14:55:31;6.70;;;2.27;;
16063;SDS011;8136;53.172;8.256;2023-11-19T14:57:59;9.80;;;2.50;;
16063;SDS011;8136;53.172;8.256;2023-11-19T15:00:26;13.40;;;2.70;;
16063;SDS011;8136;53.172;8.256;2023-11-19T15:02:57;15.37;;;2.87;;
16063;SDS011;8136;53.172;8.256;2023-11-19T15:05:23;11.73;;;3.27;;
16063;SDS011;8136;53.172;8.256;2023-11-19T15:07:54;8.10;;;2.87;;
16063;SDS011;8136;53.172;8.256;2023-11-19T15:10:20;14.70;;;2.87;;
16063;SDS011;8136;53.172;8.256;2023-11-19T15:12:50;11.80;;;3.07;;
16063;SDS011;8136;53.172;8.256;2023-11-19T15:15:22;11.33;;;3.23;;
16063;SDS011;8136;53.172;8.256;2023-11-19T15:17:49;18.07;;;3.23;;
16063;SDS011;8136;53.172;8.256;2023-11-19T15:20:16;10.73;;;3.00;;
16063;SDS011;8136;53.172;8.256;2023-11-19T15:22:46;14.10;;;3.40;;
16063;SDS011;8136;53.172;8.256;2023-11-19T15:25:13;19.63;;;3.83;;
16063;SDS011;8136;53.172;8.256;2023-11-19T15:27:40;14.77;;;3.53;;
16063;SDS011;8136;53.172;8.256;2023-11-19T15:30:07;11.33;;;2.93;;
16063;SDS011;8136;53.172;8.256;2023-11-19T15:32:39;16.07;;;3.73;;
16063;SDS011;8136;53.172;8.256;2023-11-19T15:35:06;11.90;;;3.80;;
16063;SDS011;8136;53.172;8.256;2023-11-19T15:37:44;10.87;;;3.73;;
16063;SDS011;8136;53.172;8.256;2023-11-19T15:40:16;13.40;;;3.70;;
16063;SDS011;8136;53.172;8.256;2023-11-19T15:42:44;13.90;;;3.37;;
16063;SDS011;8136;53.172;8.256;2023-11-19T15:45:27;14.83;;;3.43;;
16063;SDS011;8136;53.172;8.256;2023-11-19T15:47:55;15.30;;;3.80;;
16063;SDS011;8136;53.172;8.256;2023-11-19T15:50:24;14.30;;;3.80;;
16063;SDS011;8136;53.172;8.256;2023-11-19T15:52:56;14.43;;;3.20;;
16063;SDS011;8136;53.172;8.256;2023-11-19T15:55:27;15.10;;;3.50;;
16063;SDS011;8136;53.172;8.256;2023-11-19T15:58:10;25.63;;;3.87;;
16063;SDS011;8136;53.172;8.256;2023-11-19T16:00:37;15.57;;;3.37;;
16063;SDS011;8136;53.172;8.256;2023-11-19T16:03:17;15.10;;;4.07;;
16063;SDS011;8136;53.172;8.256;2023-11-19T16:05:55;13.47;;;3.40;;
16063;SDS011;8136;53.172;8.256;2023-11-19T16:08:41;18.60;;;3.80;;
16063;SDS011;8136;53.172;8.256;2023-11-19T16:11:17;12.63;;;3.10;;
16063;SDS011;8136;53.172;8.256;2023-11-19T16:14:32;19.40;;;4.13;;
16063;SDS011;8136;53.172;8.256;2023-11-19T16:27:10;18.47;;;3.97;;
16063;SDS011;8136;53.172;8.256;2023-11-19T16:29:44;11.53;;;2.77;;
16063;SDS011;8136;53.172;8.256;2023-11-19T21:49:58;3.07;;;1.20;;
16063;SDS011;8136;53.172;8.256;2023-11-19T21:52:40;4.23;;;1.73;;
16063;SDS011;8136;53.172;8.256;2023-11-19T21:55:21;2.13;;;1.43;;
16063;SDS011;8136;53.172;8.256;2023-11-19T21:57:50;2.93;;;1.10;;
16063;SDS011;8136;53.172;8.256;2023-11-19T22:03:54;1.83;;;1.50;;
16063;SDS011;8136;53.172;8.256;2023-11-19T22:06:31;3.87;;;1.60;;
16063;SDS011;8136;53.172;8.256;2023-11-19T22:09:31;1.63;;;1.50;;
16063;SDS011;8136;53.172;8.256;2023-11-19T22:12:04;2.93;;;1.83;;
16063;SDS011;8136;53.172;8.256;2023-11-19T22:14:56;2.13;;;1.40;;
16063;SDS011;8136;53.172;8.256;2023-11-19T22:17:29;2.97;;;1.60;;
16063;SDS011;8136;53.172;8.256;2023-11-19T22:19:55;3.53;;;1.60;;
16063;SDS011;8136;53.172;8.256;2023-11-19T22:22:41;5.73;;;2.20;;
16063;SDS011;8136;53.172;8.256;2023-11-19T22:25:10;9.93;;;2.50;;
16063;SDS011;8136;53.172;8.256;2023-11-19T22:27:37;3.93;;;2.50;;
16063;SDS011;8136;53.172;8.256;2023-11-19T22:30:04;4.70;;;2.60;;
16063;SDS011;8136;53.172;8.256;2023-11-19T22:32:33;6.80;;;2.47;;
16063;SDS011;8136;53.172;8.256;2023-11-19T22:35:00;4.37;;;2.33;;
16063;SDS011;8136;53.172;8.256;2023-11-19T22:37:27;5.97;;;2.87;;
16063;SDS011;8136;53.172;8.256;2023-11-19T22:39:56;3.33;;;2.43;;
16063;SDS011;8136;53.172;8.256;2023-11-19T22:42:23;5.23;;;3.20;;
16063;SDS011;8136;53.172;8.256;2023-11-19T22:44:49;5.30;;;3.03;;
16063;SDS011;8136;53.172;8.256;2023-11-19T22:47:16;4.23;;;3.10;;
16063;SDS011;8136;53.172;8.256;2023-11-19T22:49:46;6.97;;;3.10;;
16063;SDS011;8136;53.172;8.256;2023-11-19T22:52:24;3.47;;;2.80;;
16063;SDS011;8136;53.172;8.256;2023-11-19T22:54:51;7.40;;;3.37;;
16063;SDS011;8136;53.172;8.256;2023-11-19T22:57:19;5.47;;;3.23;;
16063;SDS011;8136;53.172;8.256;2023-11-19T22:59:46;5.43;;;3.00;;
16063;SDS011;8136;53.172;8.256;2023-11-19T23:02:13;6.27;;;3.37;;
16063;SDS011;8136;53.172;8.256;2023-11-19T23:04:41;5.53;;;2.93;;
16063;SDS011;8136;53.172;8.256;2023-11-19T23:07:07;5.33;;;2.80;;
16063;SDS011;8136;53.172;8.256;2023-11-19T23:09:34;6.37;;;2.67;;
16063;SDS011;8136;53.172;8.256;2023-11-19T23:12:03;5.77;;;2.50;;
16063;SDS011;8136;53.172;8.256;2023-11-19T23:14:32;3.83;;;2.47;;
16063;SDS011;8136;53.172;8.256;2023-11-19T23:16:59;4.07;;;2.67;;
16063;SDS011;8136;53.172;8.256;2023-11-19T23:19:26;4.33;;;2.40;;
16063;SDS011;8136;53.172;8.256;2023-11-19T23:21:53;2.20;;;1.87;;
16063;SDS011;8136;53.172;8.256;2023-11-19T23:24:20;3.37;;;2.07;;
16063;SDS011;8136;53.172;8.256;2023-11-19T23:26:47;2.30;;;1.83;;
16063;SDS011;8136;53.172;8.256;2023-11-19T23:29:14;4.50;;;1.97;;
16063;SDS011;8136;53.172;8.256;2023-11-19T23:31:42;4.37;;;2.07;;
16063;SDS011;8136;53.172;8.256;2023-11-19T23:34:10;3.70;;;1.70;;
16063;SDS011;8136;53.172;8.256;2023-11-19T23:36:37;2.53;;;1.73;;
16063;SDS011;8136;53.172;8.256;2023-11-19T23:39:04;2.23;;;1.77;;
16063;SDS011;8136;53.172;8.256;2023-11-19T23:41:31;3.13;;;2.17;;
16063;SDS011;8136;53.172;8.256;2023-11-19T23:43:58;2.47;;;1.83;;
16063;SDS011;8136;53.172;8.256;2023-11-19T23:46:25;3.97;;;1.90;;
